Time;durP1;ratioP1;P1;durP2;ratioP2;P2;SDS_P1;SDS_P2;PMS_P1;PMS_P2;Temp;Humidity;BMP_temperature;BMP_pressure;BME280_temperature;BME280_humidity;BME280_pressure;Samples;Min_cycle;Max_cycle;Signal;HPM_P1;HPM_P2
2021/05/08 00:00:55;;;;;;;8.43;5.07;;;;;;;-139.48;100.00;61774.03;4978508;28;20462;-68
2021/05/08 00:03:39;;;;;;;6.57;4.30;;;;;;;-139.48;100.00;61774.03;4992405;28;20137;-68
2021/05/08 00:06:23;;;;;;;5.80;4.60;;;;;;;-139.48;100.00;61774.03;4978407;28;20387;-69
2021/05/08 00:09:08;;;;;;;7.35;4.63;;;;;;;-139.48;100.00;61774.03;4992324;28;20053;-69
2021/05/08 00:11:54;;;;;;;5.85;4.13;;;;;;;-139.48;100.00;61774.03;4992251;28;20085;-69
2021/05/08 00:14:38;;;;;;;4.75;4.10;;;;;;;-139.48;100.00;61774.03;4993067;28;20053;-68
2021/05/08 00:17:22;;;;;;;5.30;4.60;;;;;;;-139.48;100.00;61774.03;4992111;28;20104;-69
2021/05/08 00:20:11;;;;;;;5.45;4.32;;;;;;;-139.48;100.00;61774.03;4992199;28;20050;-68
2021/05/08 00:22:55;;;;;;;5.70;4.28;;;;;;;-139.48;100.00;61774.03;4992125;28;20133;-68
2021/05/08 00:25:39;;;;;;;7.72;5.22;;;;;;;-139.48;100.00;61774.03;4991967;28;20418;-68
2021/05/08 00:28:23;;;;;;;6.05;4.72;;;;;;;-139.48;100.00;61774.03;4993284;28;20053;-68
2021/05/08 00:31:07;;;;;;;5.35;4.65;;;;;;;-139.48;100.00;61774.03;4992152;28;20045;-68
2021/05/08 00:33:51;;;;;;;5.93;4.15;;;;;;;-139.48;100.00;61774.03;4993184;28;20052;-68
2021/05/08 00:36:35;;;;;;;6.05;5.10;;;;;;;-139.48;100.00;61774.03;4993171;28;20170;-68
2021/05/08 00:39:18;;;;;;;6.72;5.38;;;;;;;-139.48;100.00;61774.03;4992051;28;20403;-68
2021/05/08 00:42:03;;;;;;;5.53;4.55;;;;;;;-139.48;100.00;61774.03;4991791;28;20048;-68
2021/05/08 00:44:47;;;;;;;9.40;5.03;;;;;;;-139.48;100.00;61774.03;4993334;28;20049;-68
2021/05/08 00:47:31;;;;;;;8.30;4.53;;;;;;;-139.48;100.00;61774.03;4992030;28;20053;-68
2021/05/08 00:50:17;;;;;;;7.72;5.35;;;;;;;-139.48;100.00;61774.03;4992879;28;20173;-68
2021/05/08 00:53:02;;;;;;;5.68;4.78;;;;;;;-139.48;100.00;61774.03;4992189;28;20093;-68
2021/05/08 00:55:46;;;;;;;7.20;5.30;;;;;;;-139.48;100.00;61774.03;4994475;28;20463;-68
2021/05/08 00:58:30;;;;;;;9.02;5.20;;;;;;;-139.48;100.00;61774.03;4981887;28;20100;-68
2021/05/08 01:01:14;;;;;;;6.22;4.95;;;;;;;-139.48;100.00;61774.03;4995288;28;20117;-68
2021/05/08 01:03:57;;;;;;;6.32;5.00;;;;;;;-139.48;100.00;61774.03;4995249;28;20415;-68
2021/05/08 01:06:41;;;;;;;6.47;5.00;;;;;;;-139.48;100.00;61774.03;4996774;28;20053;-68
2021/05/08 01:09:25;;;;;;;5.53;5.03;;;;;;;-139.48;100.00;61774.03;4996214;28;20049;-68
2021/05/08 01:12:09;;;;;;;7.90;5.85;;;;;;;-139.48;100.00;61774.03;4996334;28;20045;-68
2021/05/08 01:14:53;;;;;;;7.85;5.90;;;;;;;-139.48;100.00;61774.03;4995324;28;20044;-68
2021/05/08 01:17:38;;;;;;;8.02;5.25;;;;;;;-139.48;100.00;61774.03;4981698;28;20041;-68
2021/05/08 01:20:23;;;;;;;6.45;5.15;;;;;;;-139.48;100.00;61774.03;4981358;28;20117;-68
2021/05/08 01:23:07;;;;;;;7.72;4.72;;;;;;;-139.48;100.00;61774.03;4994871;28;20124;-68
2021/05/08 01:25:51;;;;;;;7.13;5.57;;;;;;;-139.48;100.00;61774.03;4981428;28;20057;-68
2021/05/08 01:28:35;;;;;;;12.65;5.13;;;;;;;-139.48;100.00;61774.03;4995030;28;20044;-68
2021/05/08 01:31:19;;;;;;;8.85;5.88;;;;;;;-139.48;100.00;61774.03;4981250;28;20056;-68
2021/05/08 01:34:03;;;;;;;7.30;5.93;;;;;;;-139.48;100.00;61774.03;4995790;28;20080;-68
2021/05/08 01:36:47;;;;;;;7.28;5.60;;;;;;;-139.48;100.00;61774.03;4995716;28;20132;-68
2021/05/08 01:39:31;;;;;;;8.38;6.13;;;;;;;-139.48;100.00;61774.03;4995781;28;20574;-68
2021/05/08 01:42:15;;;;;;;8.85;6.63;;;;;;;-139.48;100.00;61774.03;4980799;28;20069;-68
2021/05/08 01:45:06;;;;;;;11.40;6.55;;;;;;;-139.48;100.00;61774.03;4994545;28;20558;-68
2021/05/08 01:47:52;;;;;;;8.95;5.93;;;;;;;-139.48;100.00;61774.03;4980955;28;20068;-68
2021/05/08 01:50:35;;;;;;;9.05;6.18;;;;;;;-139.48;100.00;61774.03;4994903;28;20045;-68
2021/05/08 01:53:20;;;;;;;7.50;6.40;;;;;;;-139.48;100.00;61774.03;4995606;28;20092;-68
2021/05/08 01:56:05;;;;;;;9.90;7.07;;;;;;;-139.48;100.00;61774.03;4994635;28;20057;-68
2021/05/08 01:58:49;;;;;;;10.77;7.63;;;;;;;-139.48;100.00;61774.03;4994323;28;20053;-68
2021/05/08 02:01:33;;;;;;;8.07;6.97;;;;;;;-139.48;100.00;61774.03;4995709;28;20057;-68
2021/05/08 02:04:17;;;;;;;10.13;6.50;;;;;;;-139.48;100.00;61774.03;4995485;28;20053;-68
2021/05/08 02:07:01;;;;;;;10.13;6.82;;;;;;;-139.48;100.00;61774.03;4993811;28;20439;-68
2021/05/08 02:09:44;;;;;;;10.35;6.97;;;;;;;-139.48;100.00;61774.03;4994054;28;20053;-68
2021/05/08 02:12:30;;;;;;;9.07;6.75;;;;;;;-139.48;100.00;61774.03;4980532;28;20049;-68
2021/05/08 02:15:16;;;;;;;11.82;7.60;;;;;;;-139.48;100.00;61774.03;4995240;28;20060;-68
2021/05/08 02:18:00;;;;;;;8.38;6.20;;;;;;;-139.48;100.00;61774.03;4980271;28;20430;-67
2021/05/08 02:20:44;;;;;;;10.10;6.80;;;;;;;-139.48;100.00;61774.03;4994031;28;20051;-68
2021/05/08 02:23:28;;;;;;;9.70;6.22;;;;;;;-139.48;100.00;61774.03;4994089;28;20096;-68
2021/05/08 02:26:12;;;;;;;8.68;6.80;;;;;;;-139.48;100.00;61774.03;4993925;28;20096;-68
2021/05/08 02:28:56;;;;;;;8.50;6.38;;;;;;;-139.48;100.00;61774.03;4995264;28;20053;-69
2021/05/08 02:31:40;;;;;;;10.38;6.35;;;;;;;-139.48;100.00;61774.03;4993679;28;20127;-68
2021/05/08 02:34:24;;;;;;;8.73;6.10;;;;;;;-139.48;100.00;61774.03;4995052;28;20112;-68
2021/05/08 02:37:08;;;;;;;7.65;5.90;;;;;;;-139.48;100.00;61774.03;4993778;28;20414;-68
2021/05/08 02:39:52;;;;;;;11.13;6.50;;;;;;;-139.48;100.00;61774.03;4993436;28;20108;-68
2021/05/08 02:42:36;;;;;;;9.25;6.80;;;;;;;-139.48;100.00;61774.03;4995935;28;20104;-68
2021/05/08 02:45:20;;;;;;;8.23;6.65;;;;;;;-139.48;100.00;61774.03;4994713;28;20124;-68
2021/05/08 02:48:04;;;;;;;8.48;6.18;;;;;;;-139.48;100.00;61774.03;4993657;28;20097;-68
2021/05/08 02:50:49;;;;;;;9.38;6.28;;;;;;;-139.48;100.00;61774.03;4994572;28;20049;-68
2021/05/08 02:53:33;;;;;;;7.18;5.85;;;;;;;-139.48;100.00;61774.03;4993249;28;20573;-68
2021/05/08 02:56:17;;;;;;;7.35;5.68;;;;;;;-139.48;100.00;61774.03;4993463;28;20181;-68
2021/05/08 02:59:01;;;;;;;10.02;6.13;;;;;;;-139.48;100.00;61774.03;4993300;28;20130;-68
2021/05/08 03:01:44;;;;;;;8.43;6.05;;;;;;;-139.48;100.00;61774.03;4994173;28;20141;-68
2021/05/08 03:04:28;;;;;;;6.50;5.70;;;;;;;-139.48;100.00;61774.03;4979823;28;20048;-68
2021/05/08 03:07:12;;;;;;;7.93;6.00;;;;;;;-139.48;100.00;61774.03;4994068;28;20130;-68
2021/05/08 03:09:56;;;;;;;7.72;6.40;;;;;;;-139.48;100.00;61774.03;4979392;28;20069;-68
2021/05/08 03:12:40;;;;;;;8.70;5.80;;;;;;;-139.48;100.00;61774.03;4993984;28;20192;-68
2021/05/08 03:15:26;;;;;;;9.05;5.60;;;;;;;-139.48;100.00;61774.03;4994415;28;20053;-68
2021/05/08 03:18:10;;;;;;;7.03;5.40;;;;;;;-139.48;100.00;61774.03;4993141;28;20586;-68
2021/05/08 03:20:54;;;;;;;6.88;5.30;;;;;;;-139.48;100.00;61774.03;4992969;28;20049;-68
2021/05/08 03:23:38;;;;;;;;;;;;;;;-139.48;100.00;61774.03;4994463;28;20101;-68
2021/05/08 03:26:22;;;;;;;7.30;5.63;;;;;;;-139.48;100.00;61774.03;4992926;28;19976;-68
2021/05/08 03:29:06;;;;;;;6.80;5.35;;;;;;;-139.48;100.00;61774.03;4979436;28;20069;-68
2021/05/08 03:31:50;;;;;;;7.78;5.78;;;;;;;-139.48;100.00;61774.03;4992785;28;20060;-68
2021/05/08 03:34:34;;;;;;;9.20;6.05;;;;;;;-139.48;100.00;61774.03;4992812;28;20057;-67
2021/05/08 03:37:18;;;;;;;;;;;;;;;-139.48;100.00;61774.03;4993012;28;20081;-68
2021/05/08 03:40:03;;;;;;;7.57;5.75;;;;;;;-139.48;100.00;61774.03;4992698;28;19925;-68
2021/05/08 03:42:47;;;;;;;10.73;6.00;;;;;;;-139.48;100.00;61774.03;4978623;28;20414;-68
2021/05/08 03:45:31;;;;;;;10.35;6.38;;;;;;;-139.48;100.00;61774.03;4993549;28;20061;-68
2021/05/08 03:48:14;;;;;;;14.70;7.22;;;;;;;-139.48;100.00;61774.03;4992429;28;20053;-68
2021/05/08 03:50:58;;;;;;;8.52;6.47;;;;;;;-139.48;100.00;61774.03;4992613;28;20172;-68
2021/05/08 03:53:42;;;;;;;7.90;6.05;;;;;;;-139.48;100.00;61774.03;4992407;28;20478;-68
2021/05/08 03:56:26;;;;;;;;;;;;;;;-139.48;100.00;61774.03;4979287;28;20054;-68
2021/05/08 03:59:10;;;;;;;13.00;6.40;;;;;;;-139.48;100.00;61774.03;4993583;28;19964;-67
2021/05/08 04:01:54;;;;;;;8.27;5.45;;;;;;;-139.48;100.00;61774.03;4993735;28;20104;-68
2021/05/08 04:04:38;;;;;;;9.25;7.20;;;;;;;-139.48;100.00;61774.03;4992274;28;20133;-68
2021/05/08 04:07:22;;;;;;;8.73;6.40;;;;;;;-139.48;100.00;61774.03;4992489;28;20053;-68
2021/05/08 04:10:06;;;;;;;9.63;6.97;;;;;;;-139.48;100.00;61774.03;4992415;28;20089;-68
2021/05/08 04:12:50;;;;;;;9.25;6.65;;;;;;;-139.48;100.00;61774.03;4993405;28;20482;-68
2021/05/08 04:15:34;;;;;;;8.38;6.45;;;;;;;-139.48;100.00;61774.03;4992185;28;20054;-68
2021/05/08 04:18:19;;;;;;;11.32;6.35;;;;;;;-139.48;100.00;61774.03;4992132;28;20087;-68
2021/05/08 04:21:03;;;;;;;10.23;6.65;;;;;;;-139.48;100.00;61774.03;4992212;28;20057;-68
2021/05/08 04:23:47;;;;;;;8.80;6.68;;;;;;;-139.48;100.00;61774.03;4978556;28;20578;-68
2021/05/08 04:26:31;;;;;;;12.02;6.00;;;;;;;-139.48;100.00;61774.03;4978611;28;20061;-68
2021/05/08 04:29:15;;;;;;;7.10;6.25;;;;;;;-139.48;100.00;61774.03;4992460;28;20093;-68
2021/05/08 04:31:59;;;;;;;9.80;6.18;;;;;;;-139.48;100.00;61774.03;4995865;28;20085;-68
2021/05/08 04:34:43;;;;;;;8.57;6.40;;;;;;;-139.48;100.00;61774.03;4996358;28;20053;-68
2021/05/08 04:37:26;;;;;;;12.05;6.38;;;;;;;-139.48;100.00;61774.03;4996097;28;20124;-68
2021/05/08 04:40:11;;;;;;;11.52;6.43;;;;;;;-139.48;100.00;61774.03;4982276;28;20515;-68
2021/05/08 04:42:55;;;;;;;8.57;5.72;;;;;;;-139.48;100.00;61774.03;4995796;28;20157;-67
2021/05/08 04:45:39;;;;;;;9.60;6.93;;;;;;;-139.48;100.00;61774.03;4996137;28;20081;-67
2021/05/08 04:48:24;;;;;;;10.90;6.50;;;;;;;-139.48;100.00;61774.03;4996674;28;20053;-68
2021/05/08 04:51:08;;;;;;;7.65;6.07;;;;;;;-139.48;100.00;61774.03;4995508;28;20052;-68
2021/05/08 04:53:52;;;;;;;8.00;6.30;;;;;;;-139.48;100.00;61774.03;4995782;28;20188;-68
2021/05/08 04:56:36;;;;;;;8.27;6.22;;;;;;;-139.48;100.00;61774.03;4996689;28;20096;-68
2021/05/08 04:59:20;;;;;;;8.55;6.55;;;;;;;-139.48;100.00;61774.03;4981527;28;20105;-67
2021/05/08 05:02:04;;;;;;;9.10;6.30;;;;;;;-139.48;100.00;61774.03;4982041;28;20064;-68
2021/05/08 05:04:48;;;;;;;11.38;7.13;;;;;;;-139.48;100.00;61774.03;4996603;28;20057;-68
2021/05/08 05:07:32;;;;;;;8.82;6.72;;;;;;;-139.48;100.00;61774.03;4995531;28;20049;-68
2021/05/08 05:10:16;;;;;;;9.00;6.93;;;;;;;-139.48;100.00;61774.03;4995453;28;20049;-68
2021/05/08 05:13:00;;;;;;;7.60;6.50;;;;;;;-139.48;100.00;61774.03;4996337;28;20049;-68
2021/05/08 05:15:44;;;;;;;8.77;6.68;;;;;;;-139.48;100.00;61774.03;4995185;28;20483;-68
2021/05/08 05:18:31;;;;;;;9.98;7.50;;;;;;;-139.48;100.00;61774.03;4981521;28;20134;-68
2021/05/08 05:21:15;;;;;;;8.85;6.65;;;;;;;-139.48;100.00;61774.03;4981085;28;20581;-68
2021/05/08 05:23:59;;;;;;;9.23;6.85;;;;;;;-139.48;100.00;61774.03;4995159;28;20134;-68
2021/05/08 05:26:43;;;;;;;8.55;6.03;;;;;;;-139.48;100.00;61774.03;4996433;28;20172;-68
2021/05/08 05:29:27;;;;;;;7.50;6.63;;;;;;;-139.48;100.00;61774.03;4995125;28;20045;-68
2021/05/08 05:32:11;;;;;;;8.32;6.38;;;;;;;-139.48;100.00;61774.03;4996023;28;20520;-68
2021/05/08 05:34:54;;;;;;;7.50;5.93;;;;;;;-139.48;100.00;61774.03;4995932;28;20069;-68
2021/05/08 05:37:39;;;;;;;11.07;7.55;;;;;;;-139.48;100.00;61774.03;4995072;28;20494;-68
2021/05/08 05:40:23;;;;;;;8.75;7.00;;;;;;;-139.48;100.00;61774.03;4980988;28;20053;-68
2021/05/08 05:43:07;;;;;;;11.23;7.25;;;;;;;-139.48;100.00;61774.03;4993797;28;20077;-68
2021/05/08 05:45:50;;;;;;;9.02;6.55;;;;;;;-139.48;100.00;61774.03;4995549;28;20447;-68
2021/05/08 05:48:34;;;;;;;9.75;7.65;;;;;;;-139.48;100.00;61774.03;4995934;28;20453;-67
2021/05/08 05:51:18;;;;;;;13.20;8.65;;;;;;;-139.48;100.00;61774.03;4995579;28;20526;-69
2021/05/08 05:54:03;;;;;;;9.77;7.80;;;;;;;-139.48;100.00;61774.03;4994659;28;20084;-68
2021/05/08 05:56:47;;;;;;;8.77;6.95;;;;;;;-139.48;100.00;61774.03;4994521;28;20101;-68
2021/05/08 05:59:31;;;;;;;10.07;7.88;;;;;;;-139.48;100.00;61774.03;4980630;28;20163;-68
2021/05/08 06:02:15;;;;;;;8.85;6.97;;;;;;;-139.48;100.00;61774.03;4995301;28;20411;-68
2021/05/08 06:04:58;;;;;;;13.40;7.15;;;;;;;-139.48;100.00;61774.03;4995449;28;20084;-68
2021/05/08 06:07:43;;;;;;;8.50;7.32;;;;;;;-139.48;100.00;61774.03;4980387;28;20419;-68
2021/05/08 06:10:27;;;;;;;7.68;5.95;;;;;;;-139.48;100.00;61774.03;4995332;28;20495;-68
2021/05/08 06:13:11;;;;;;;8.07;6.57;;;;;;;-139.48;100.00;61774.03;4994168;28;20577;-68
2021/05/08 06:15:54;;;;;;;11.10;6.15;;;;;;;-139.48;100.00;61774.03;4980516;28;20510;-68
2021/05/08 06:18:38;;;;;;;9.32;6.07;;;;;;;-139.48;100.00;61774.03;4995192;28;20113;-68
2021/05/08 06:21:22;;;;;;;6.57;5.43;;;;;;;-139.48;100.00;61774.03;4993945;28;20150;-68
2021/05/08 06:24:07;;;;;;;6.57;5.28;;;;;;;-139.48;100.00;61774.03;4995069;28;20053;-68
2021/05/08 06:26:51;;;;;;;7.90;5.20;;;;;;;-139.48;100.00;61774.03;4994731;28;20557;-68
2021/05/08 06:29:38;;;;;;;8.95;5.88;;;;;;;-139.48;100.00;61774.03;4993670;28;20049;-68
2021/05/08 06:32:22;;;;;;;7.82;4.97;;;;;;;-139.48;100.00;61774.03;4993807;28;20045;-68
2021/05/08 06:35:06;;;;;;;8.20;5.60;;;;;;;-139.48;100.00;61774.03;4980196;28;20108;-68
2021/05/08 06:37:50;;;;;;;7.88;5.10;;;;;;;-139.48;100.00;61774.03;4993840;28;20407;-68
2021/05/08 06:40:34;;;;;;;6.47;5.07;;;;;;;-139.48;100.00;61774.03;4994684;28;20057;-68
2021/05/08 06:43:18;;;;;;;7.18;4.88;;;;;;;-139.48;100.00;61774.03;4993319;28;20052;-68
2021/05/08 06:46:02;;;;;;;6.05;5.38;;;;;;;-139.48;100.00;61774.03;4979888;28;20174;-68
2021/05/08 06:48:45;;;;;;;6.22;5.22;;;;;;;-139.48;100.00;61774.03;4993224;28;20079;-68
2021/05/08 06:51:29;;;;;;;6.35;5.05;;;;;;;-139.48;100.00;61774.03;4994404;28;20108;-68
2021/05/08 06:54:13;;;;;;;7.72;5.10;;;;;;;-139.48;100.00;61774.03;4979554;28;20524;-68
2021/05/08 06:56:58;;;;;;;8.30;5.70;;;;;;;-139.48;100.00;61774.03;4979981;28;20527;-68
2021/05/08 06:59:42;;;;;;;9.02;5.47;;;;;;;-139.48;100.00;61774.03;4994310;28;20085;-68
2021/05/08 07:02:25;;;;;;;9.02;5.68;;;;;;;-139.48;100.00;61774.03;4979402;28;20537;-68
2021/05/08 07:05:09;;;;;;;6.05;5.45;;;;;;;-139.48;100.00;61774.03;4993239;28;20139;-67
2021/05/08 07:08:01;;;;;;;7.45;5.18;;;;;;;-139.48;100.00;61774.03;4992961;28;20084;-68
2021/05/08 07:10:48;;;;;;;9.65;6.22;;;;;;;-139.48;100.00;61774.03;4979118;28;20514;-66
2021/05/08 07:13:31;;;;;;;7.60;5.15;;;;;;;-139.48;100.00;61774.03;4992929;28;20072;-67
2021/05/08 07:16:15;;;;;;;6.93;5.25;;;;;;;-139.48;100.00;61774.03;4993127;28;20072;-67
2021/05/08 07:18:59;;;;;;;7.28;5.22;;;;;;;-139.48;100.00;61774.03;4994119;28;20081;-68
2021/05/08 07:21:44;;;;;;;6.07;5.47;;;;;;;-139.48;100.00;61774.03;4992764;28;20415;-68
2021/05/08 07:24:28;;;;;;;6.88;5.35;;;;;;;-139.48;100.00;61774.03;4993997;28;20045;-67
2021/05/08 07:27:12;;;;;;;8.93;5.90;;;;;;;-139.48;100.00;61774.03;4993982;28;20053;-68
2021/05/08 07:29:56;;;;;;;8.05;5.60;;;;;;;-139.48;100.00;61774.03;4993340;28;20383;-68
2021/05/08 07:32:40;;;;;;;7.00;5.00;;;;;;;-139.48;100.00;61774.03;4993890;28;20482;-68
2021/05/08 07:35:24;;;;;;;6.82;4.90;;;;;;;-139.48;100.00;61774.03;4992731;28;20053;-68
2021/05/08 07:38:08;;;;;;;6.07;5.07;;;;;;;-139.48;100.00;61774.03;4992929;28;20073;-68
2021/05/08 07:40:53;;;;;;;8.50;5.80;;;;;;;-139.48;100.00;61774.03;4993480;28;20045;-68
2021/05/08 07:43:37;;;;;;;5.43;4.93;;;;;;;-139.48;100.00;61774.03;4992681;28;20069;-68
2021/05/08 07:46:21;;;;;;;7.07;4.78;;;;;;;-139.48;100.00;61774.03;4993718;28;20193;-68
2021/05/08 07:49:05;;;;;;;6.35;4.95;;;;;;;-139.48;100.00;61774.03;4992610;28;20182;-68
2021/05/08 07:51:49;;;;;;;6.90;4.80;;;;;;;-139.48;100.00;61774.03;4992582;28;20133;-68
2021/05/08 07:54:33;;;;;;;7.38;5.50;;;;;;;-139.48;100.00;61774.03;4992529;28;20050;-68
2021/05/08 07:57:17;;;;;;;8.18;4.75;;;;;;;-139.48;100.00;61774.03;4992453;28;20057;-68
2021/05/08 08:00:01;;;;;;;5.60;4.60;;;;;;;-139.48;100.00;61774.03;4978432;28;20092;-67
2021/05/08 08:02:46;;;;;;;7.13;4.93;;;;;;;-139.48;100.00;61774.03;4993407;28;20057;-67
2021/05/08 08:05:30;;;;;;;7.40;5.50;;;;;;;-139.48;100.00;61774.03;4991888;28;20057;-68
2021/05/08 08:08:14;;;;;;;6.18;5.10;;;;;;;-139.48;100.00;61774.03;4992282;28;20065;-68
2021/05/08 08:10:58;;;;;;;5.60;4.53;;;;;;;-139.48;100.00;61774.03;4993513;28;20053;-68
2021/05/08 08:13:42;;;;;;;5.53;4.15;;;;;;;-139.48;100.00;61774.03;4992359;28;20081;-68
2021/05/08 08:16:26;;;;;;;6.07;4.80;;;;;;;-139.48;100.00;61774.03;4992287;28;20132;-68
2021/05/08 08:19:10;;;;;;;5.82;4.60;;;;;;;-139.48;100.00;61774.03;4992353;28;20057;-67
2021/05/08 08:21:54;;;;;;;6.60;4.63;;;;;;;-139.48;100.00;61774.03;4992150;28;20057;-68
2021/05/08 08:24:38;;;;;;;6.13;4.78;;;;;;;-139.48;100.00;61774.03;4992262;28;20065;-68
2021/05/08 08:27:22;;;;;;;5.85;4.95;;;;;;;-139.48;100.00;61774.03;4992213;28;20056;-68
2021/05/08 08:30:08;;;;;;;6.20;4.50;;;;;;;-139.48;100.00;61774.03;4992017;28;20041;-68
2021/05/08 08:32:52;;;;;;;5.47;4.28;;;;;;;-139.48;100.00;61774.03;4991885;28;20096;-67
2021/05/08 08:35:36;;;;;;;5.38;4.70;;;;;;;-139.48;100.00;61774.03;4991989;28;20053;-68
2021/05/08 08:38:20;;;;;;;9.43;4.53;;;;;;;-139.48;100.00;61774.03;4992073;28;20101;-68
2021/05/08 08:41:04;;;;;;;5.50;4.65;;;;;;;-139.48;100.00;61774.03;4993001;28;20057;-68
2021/05/08 08:43:48;;;;;;;5.35;4.22;;;;;;;-139.48;100.00;61774.03;4978442;28;20542;-67
2021/05/08 08:46:32;;;;;;;5.03;4.20;;;;;;;-139.48;100.00;61774.03;4993341;28;20106;-67
2021/05/08 08:49:16;;;;;;;5.68;4.43;;;;;;;-139.48;100.00;61774.03;4992078;28;20171;-67
2021/05/08 08:52:00;;;;;;;6.47;4.13;;;;;;;-139.48;100.00;61774.03;4978261;28;20061;-67
2021/05/08 08:54:44;;;;;;;4.82;4.32;;;;;;;-139.48;100.00;61774.03;4978030;28;20104;-67
2021/05/08 08:57:34;;;;;;;10.20;4.68;;;;;;;-139.48;100.00;61774.03;4992002;28;20065;-67
2021/05/08 09:00:19;;;;;;;6.45;5.22;;;;;;;-139.48;100.00;61774.03;4980182;28;20136;-67
2021/05/08 09:03:03;;;;;;;4.75;4.32;;;;;;;-139.48;100.00;61774.03;4991539;28;20046;-68
2021/05/08 09:05:47;;;;;;;6.28;4.95;;;;;;;-139.48;100.00;61774.03;4978078;28;20101;-67
2021/05/08 09:08:31;;;;;;;8.40;4.55;;;;;;;-139.48;100.00;61774.03;4991594;28;20053;-67
2021/05/08 09:11:24;;;;;;;5.05;4.55;;;;;;;-139.48;100.00;61774.03;4992474;28;20060;-68
2021/05/08 09:14:24;;;;;;;5.05;4.20;;;;;;;-139.48;100.00;61774.03;4992502;28;20137;-67
2021/05/08 09:17:10;;;;;;;7.65;4.13;;;;;;;-139.48;100.00;61774.03;4993079;28;20049;-67
2021/05/08 09:20:00;;;;;;;10.80;4.40;;;;;;;-139.48;100.00;61774.03;4995152;28;20050;-67
2021/05/08 09:22:45;;;;;;;4.82;3.55;;;;;;;-139.48;100.00;61774.03;4995073;28;20046;-68
2021/05/08 09:25:30;;;;;;;4.30;3.70;;;;;;;-139.48;100.00;61774.03;4981233;28;20530;-68
2021/05/08 09:28:14;;;;;;;5.43;3.45;;;;;;;-139.48;100.00;61774.03;4996079;28;20077;-68
2021/05/08 09:30:58;;;;;;;5.75;3.38;;;;;;;-139.48;100.00;61774.03;4996249;28;20053;-67
2021/05/08 09:33:50;;;;;;;6.18;3.67;;;;;;;-139.48;100.00;61774.03;4994916;28;20517;-66
2021/05/08 09:36:51;;;;;;;5.82;3.30;;;;;;;-139.48;100.00;61774.03;4994627;28;20446;-66
2021/05/08 09:39:35;;;;;;;4.28;2.90;;;;;;;-139.48;100.00;61774.03;4995010;28;20132;-66
2021/05/08 09:42:22;;;;;;;6.13;3.30;;;;;;;-139.48;100.00;61774.03;4995476;28;20049;-66
2021/05/08 09:45:06;;;;;;;4.82;3.60;;;;;;;-139.48;100.00;61774.03;4980964;28;20057;-66
2021/05/08 09:47:51;;;;;;;7.05;3.60;;;;;;;-139.48;100.00;61774.03;4980755;28;20561;-66
2021/05/08 09:50:35;;;;;;;4.43;2.45;;;;;;;-139.48;100.00;61774.03;4994308;28;20093;-66
2021/05/08 09:53:30;;;;;;;5.57;3.20;;;;;;;-139.48;100.00;61774.03;4995776;28;20530;-66
2021/05/08 09:56:42;;;;;;;5.05;3.22;;;;;;;-139.48;100.00;61774.03;4995660;28;20117;-66
2021/05/08 09:59:33;;;;;;;5.63;3.15;;;;;;;-139.48;100.00;61774.03;4994401;28;20049;-66
2021/05/08 10:02:17;;;;;;;4.07;2.95;;;;;;;-139.48;100.00;61774.03;4994135;28;20560;-66
2021/05/08 10:05:10;;;;;;;9.40;4.20;;;;;;;-139.48;100.00;61774.03;4994326;28;20077;-68
2021/05/08 10:07:55;;;;;;;5.75;4.07;;;;;;;-139.48;100.00;61774.03;4994037;28;20049;-67
2021/05/08 10:10:39;;;;;;;7.70;4.07;;;;;;;-139.48;100.00;61774.03;4995062;28;20044;-67
2021/05/08 10:13:24;;;;;;;4.60;3.50;;;;;;;-139.48;100.00;61774.03;4993917;28;20399;-67
2021/05/08 10:16:09;;;;;;;3.78;3.03;;;;;;;-139.48;100.00;61774.03;4994186;28;20057;-67
2021/05/08 10:18:52;;;;;;;4.63;3.45;;;;;;;-139.48;100.00;61774.03;4993938;28;20072;-67
2021/05/08 10:21:36;;;;;;;4.38;3.10;;;;;;;-139.48;100.00;61774.03;4993837;28;20041;-67
2021/05/08 10:24:21;;;;;;;3.75;3.20;;;;;;;-139.48;100.00;61774.03;4993852;28;20084;-67
2021/05/08 10:27:06;;;;;;;5.20;3.78;;;;;;;-139.48;100.00;61774.03;4993780;28;20112;-67
2021/05/08 10:29:50;;;;;;;5.57;3.35;;;;;;;-139.48;100.00;61774.03;4994818;28;20069;-67
2021/05/08 10:32:37;;;;;;;4.68;2.80;;;;;;;-139.48;100.00;61774.03;4993411;28;20058;-67
2021/05/08 10:35:23;;;;;;;3.20;2.90;;;;;;;-139.48;100.00;61774.03;4993700;28;20221;-67
2021/05/08 10:38:07;;;;;;;3.75;2.83;;;;;;;-139.48;100.00;61774.03;4994193;28;20124;-67
2021/05/08 10:40:53;;;;;;;4.63;3.10;;;;;;;-139.48;100.00;61774.03;4993757;28;20056;-67
2021/05/08 10:43:49;;;;;;;4.35;3.13;;;;;;;-139.48;100.00;61774.03;4993130;28;20053;-67
2021/05/08 10:46:51;;;;;;;4.05;2.88;;;;;;;-139.48;100.00;61774.03;4992781;28;20092;-66
2021/05/08 10:49:35;;;;;;;3.60;2.80;;;;;;;-139.48;100.00;61774.03;4992966;28;20108;-66
2021/05/08 10:52:19;;;;;;;5.25;2.80;;;;;;;-139.48;100.00;61774.03;4992585;28;20061;-66
2021/05/08 10:55:20;;;;;;;2.70;2.50;;;;;;;-139.48;100.00;61774.03;4992857;28;20120;-65
2021/05/08 10:58:13;;;;;;;7.30;3.05;;;;;;;-139.48;100.00;61774.03;4992547;28;20420;-66
2021/05/08 11:01:01;;;;;;;4.05;2.10;;;;;;;-139.48;100.00;61774.03;4992751;28;20049;-66
2021/05/08 11:03:45;;;;;;;4.82;2.28;;;;;;;-139.48;100.00;61774.03;4992831;28;20514;-66
2021/05/08 11:06:29;;;;;;;4.03;2.88;;;;;;;-139.48;100.00;61774.03;4993647;28;20052;-66
2021/05/08 11:09:28;;;;;;;3.58;2.40;;;;;;;-139.48;100.00;61774.03;4993456;28;20049;-66
2021/05/08 11:12:12;;;;;;;4.45;2.10;;;;;;;-139.48;100.00;61774.03;4992571;28;20576;-65
2021/05/08 11:14:56;;;;;;;3.50;1.80;;;;;;;-139.48;100.00;61774.03;4993626;28;20518;-66
2021/05/08 11:18:01;;;;;;;2.92;1.85;;;;;;;-139.48;100.00;61774.03;4992503;28;20116;-67
2021/05/08 11:20:45;;;;;;;;;;;;;;;-139.48;100.00;61774.03;4992610;28;20046;-66
2021/05/08 11:23:52;;;;;;;4.70;1.90;;;;;;;-139.48;100.00;61774.03;4978452;28;19921;-66
2021/05/08 11:26:38;;;;;;;4.68;2.47;;;;;;;-139.48;100.00;61774.03;4992233;28;20515;-67
2021/05/08 11:29:30;;;;;;;2.85;1.90;;;;;;;-139.48;100.00;61774.03;4978735;28;20044;-66
2021/05/08 11:32:14;;;;;;;2.70;1.88;;;;;;;-139.48;100.00;61774.03;4992892;28;20456;-66
2021/05/08 11:34:59;;;;;;;2.45;1.70;;;;;;;-139.48;100.00;61774.03;4992593;28;20463;-64
2021/05/08 11:37:43;;;;;;;2.67;2.10;;;;;;;-139.48;100.00;61774.03;4993701;28;20149;-65
2021/05/08 11:40:33;;;;;;;2.30;1.70;;;;;;;-139.48;100.00;61774.03;4992629;28;20615;-66
2021/05/08 11:43:25;;;;;;;2.63;1.92;;;;;;;-139.48;100.00;61774.03;4992482;28;20050;-65
2021/05/08 11:46:09;;;;;;;3.78;1.83;;;;;;;-139.48;100.00;61774.03;4992466;28;20081;-66
2021/05/08 11:48:53;;;;;;;2.72;1.70;;;;;;;-139.48;100.00;61774.03;4992513;28;20097;-68
2021/05/08 11:51:43;;;;;;;2.67;1.75;;;;;;;-139.48;100.00;61774.03;4992386;28;20041;-68
2021/05/08 11:54:29;;;;;;;2.88;1.83;;;;;;;-139.48;100.00;61774.03;4978760;28;20048;-68
2021/05/08 11:57:20;;;;;;;4.45;2.00;;;;;;;-139.48;100.00;61774.03;4992389;28;20065;-68
2021/05/08 12:00:18;;;;;;;2.80;1.88;;;;;;;-139.48;100.00;61774.03;4993131;28;20046;-68
2021/05/08 12:03:15;;;;;;;3.72;2.10;;;;;;;-139.48;100.00;61774.03;4992394;28;20170;-68
2021/05/08 12:05:59;;;;;;;5.65;2.20;;;;;;;-139.48;100.00;61774.03;4992374;28;20050;-68
2021/05/08 12:08:43;;;;;;;4.35;2.95;;;;;;;-139.48;100.00;61774.03;4992234;28;20052;-68
2021/05/08 12:11:27;;;;;;;2.25;1.77;;;;;;;-139.48;100.00;61774.03;4992049;28;20558;-68
2021/05/08 12:14:12;;;;;;;5.25;2.15;;;;;;;-139.48;100.00;61774.03;4993158;28;20210;-67
2021/05/08 12:16:57;;;;;;;4.63;2.00;;;;;;;-139.48;100.00;61774.03;4993070;28;20053;-68
2021/05/08 12:19:44;;;;;;;2.30;1.60;;;;;;;-139.48;100.00;61774.03;4978452;28;20514;-67
2021/05/08 12:22:28;;;;;;;3.17;1.80;;;;;;;-139.48;100.00;61774.03;4991947;28;20046;-68
2021/05/08 12:25:23;;;;;;;2.65;1.80;;;;;;;-139.48;100.00;61774.03;4992385;28;20089;-67
2021/05/08 12:28:20;;;;;;;2.80;1.85;;;;;;;-139.48;100.00;61774.03;4992089;28;20411;-68
2021/05/08 12:31:19;;;;;;;3.85;2.20;;;;;;;-139.48;100.00;61774.03;4993380;28;20187;-68